Orbital elements of ARIANE 44L R/B
| Launched | 29 August 2001 |
| Flight ended | – |
| Launch site | Europe's Spaceport, Kourou, French Guiana |
| Owner | France |
| NORAD ID | 26901 |
| Date fetched |
Epoch osculation |
Inc. [°] |
Ecc. | RA asc node [hr] |
Arg Peri. [°] |
Mean anom [°] |
Mean motion [rev/day] |
Abs. mag |
| Date fetched |
Epoch osculation |
Inc. [°] |
Ecc. | RA asc node [hr] |
Arg Peri. [°] |
Mean anom [°] |
Mean motion [rev/day] |
Abs. mag |
| 2026 May 09 17:57 | 2026 May 05 02:06:31 | 7.6547 | 0.64009 | 1.0562 | 158.3498 | 249.9014 | 3.44350 | 4.243 |
| 2026 May 08 17:57 | 2026 May 05 02:06:31 | 7.6547 | 0.64009 | 1.0562 | 158.3498 | 249.9014 | 3.44350 | 4.243 |
| 2026 May 07 17:58 | 2026 May 05 02:06:31 | 7.6547 | 0.64009 | 1.0562 | 158.3498 | 249.9014 | 3.44350 | 4.243 |
| 2026 May 06 17:57 | 2026 May 05 02:06:31 | 7.6547 | 0.64009 | 1.0562 | 158.3498 | 249.9014 | 3.44350 | 4.243 |
| 2026 May 05 17:57 | 2026 May 05 02:06:31 | 7.6547 | 0.64009 | 1.0562 | 158.3498 | 249.9014 | 3.44350 | 4.243 |
| 2026 May 04 17:57 | 2026 Apr 30 03:56:52 | 7.6508 | 0.64021 | 1.2800 | 151.7269 | 249.9014 | 3.44350 | 4.243 |
| 2026 May 03 17:57 | 2026 Apr 30 03:56:52 | 7.6508 | 0.64021 | 1.2800 | 151.7269 | 249.9014 | 3.44350 | 4.243 |
| 2026 May 02 17:57 | 2026 Apr 30 03:56:52 | 7.6508 | 0.64021 | 1.2800 | 151.7269 | 249.9014 | 3.44350 | 4.243 |
| 2026 May 01 17:56 | 2026 Apr 30 03:56:52 | 7.6508 | 0.64021 | 1.2800 | 151.7269 | 249.9014 | 3.44350 | 4.243 |
| 2026 Apr 30 17:56 | 2026 Apr 30 03:56:52 | 7.6508 | 0.64021 | 1.2800 | 151.7269 | 249.9014 | 3.44350 | 4.243 |
| 2026 Apr 29 17:57 | 2026 Apr 24 08:50:58 | 7.6476 | 0.64033 | 1.5429 | 143.9394 | 249.9014 | 3.44350 | 4.243 |
| 2026 Apr 28 17:56 | 2026 Apr 24 08:50:58 | 7.6476 | 0.64033 | 1.5429 | 143.9394 | 249.9014 | 3.44350 | 4.243 |
| 2026 Apr 27 17:58 | 2026 Apr 24 08:50:58 | 7.6476 | 0.64033 | 1.5429 | 143.9394 | 249.9014 | 3.44350 | 4.243 |
| 2026 Apr 26 17:58 | 2026 Apr 24 08:50:58 | 7.6476 | 0.64033 | 1.5429 | 143.9394 | 249.9014 | 3.44350 | 4.243 |
| 2026 Apr 25 17:58 | 2026 Apr 24 08:50:58 | 7.6476 | 0.64033 | 1.5429 | 143.9394 | 249.9014 | 3.44350 | 4.243 |
| 2026 Apr 24 17:59 | 2026 Apr 24 08:50:58 | 7.6476 | 0.64033 | 1.5429 | 143.9394 | 249.9014 | 3.44350 | 4.243 |
| 2026 Apr 23 17:57 | 2026 Apr 18 20:37:30 | 7.6439 | 0.64043 | 1.7929 | 136.5323 | 249.9014 | 3.44350 | 4.243 |
| 2026 Apr 22 17:57 | 2026 Apr 18 20:37:30 | 7.6439 | 0.64043 | 1.7929 | 136.5323 | 249.9014 | 3.44350 | 4.243 |
| 2026 Apr 21 17:57 | 2026 Apr 18 20:37:30 | 7.6439 | 0.64043 | 1.7929 | 136.5323 | 249.9014 | 3.44350 | 4.243 |
| 2026 Apr 20 17:57 | 2026 Apr 18 20:37:30 | 7.6439 | 0.64043 | 1.7929 | 136.5323 | 249.9014 | 3.44350 | 4.243 |
| 2026 Apr 19 17:58 | 2026 Apr 18 20:37:30 | 7.6439 | 0.64043 | 1.7929 | 136.5323 | 249.9014 | 3.44350 | 4.243 |
| 2026 Apr 18 17:56 | 2026 Apr 12 18:24:25 | 7.6382 | 0.64061 | 2.0697 | 128.3268 | 249.9014 | 3.44350 | 4.243 |
| 2026 Apr 16 17:57 | 2026 Apr 12 18:24:25 | 7.6382 | 0.64061 | 2.0697 | 128.3268 | 249.9014 | 3.44350 | 4.243 |
| 2026 Apr 14 17:57 | 2026 Apr 12 18:24:25 | 7.6382 | 0.64061 | 2.0697 | 128.3268 | 249.9014 | 3.44350 | 4.243 |
| 2026 Apr 13 17:57 | 2026 Apr 12 18:24:25 | 7.6382 | 0.64061 | 2.0697 | 128.3268 | 249.9014 | 3.44350 | 4.243 |
| 2026 Apr 12 17:57 | 2026 Apr 08 09:55:05 | 7.6370 | 0.64069 | 2.2673 | 122.4726 | 249.9014 | 3.44350 | 4.243 |